Terminal Aerodrome Forecast
Issued by NWS Louisville, KY

Home | Current Version | Previous Version | Text Only | Print | Product List | Glossary On
Versions: 1 2 3 4 5 6 7 8 9 10 11 12 13 14
000
FTUS43 KLMK 181100 AAA
TAFBWG
TAF AMD
KBWG 181122Z 1811/1906 02003KT P6SM BKN060
     FM181400 VRB03KT P6SM VCSH SCT025 OVC060
     FM182300 34004KT P6SM SCT025=

USA.gov is the U.S. government's official web portal to all federal, state and local government web resources and services.